Time;durP1;ratioP1;P1;durP2;ratioP2;P2;SDS_P1;SDS_P2;PMS_P1;PMS_P2;Temp;Humidity;BMP_temperature;BMP_pressure;BME280_temperature;BME280_humidity;BME280_pressure;Samples;Min_cycle;Max_cycle;Signal;HPM_P1;HPM_P2
2022/01/12 00:00:27;;;;;;;7.20;4.00;;;5.10;71.80;;;5.42;48.95;100460.13;4949589;28;123917;-84
2022/01/12 00:02:55;;;;;;;5.50;3.60;;;4.90;71.60;;;5.39;48.25;100468.81;4951590;28;114281;-87
2022/01/12 00:05:21;;;;;;;5.20;4.03;;;4.90;71.60;;;5.37;48.46;100465.47;4962278;28;113700;-86
2022/01/12 00:07:50;;;;;;;6.60;4.37;;;4.90;71.70;;;5.33;48.80;100472.50;4955016;28;124197;-87
2022/01/12 00:10:20;;;;;;;5.10;4.03;;;4.90;71.70;;;5.30;48.68;100473.81;4954796;28;122765;-87
2022/01/12 00:12:48;;;;;;;5.83;3.53;;;4.90;71.70;;;5.27;48.53;100470.72;4951817;28;115200;-87
2022/01/12 00:15:15;;;;;;;7.50;4.23;;;4.80;71.70;;;5.24;48.95;100472.03;4950599;28;116393;-87
2022/01/12 00:17:44;;;;;;;5.83;4.13;;;4.80;71.70;;;5.20;48.80;100468.06;4941838;28;123969;-86
2022/01/12 00:20:11;;;;;;;5.67;4.27;;;4.80;71.80;;;5.17;48.66;100476.78;4937529;28;122769;-85
2022/01/12 00:22:40;;;;;;;7.10;4.37;;;4.80;71.80;;;5.15;49.14;100476.16;4941246;28;114194;-87
2022/01/12 00:25:58;;;;;;;5.63;3.90;;;4.80;72.00;;;5.12;49.09;100476.63;4965451;28;113941;-85
2022/01/12 00:33:29;;;;;;;7.20;4.77;;;4.70;72.10;;;5.03;49.25;100478.91;4961315;28;114463;-84
2022/01/12 00:35:57;;;;;;;5.40;4.40;;;4.60;72.10;;;5.02;49.59;100476.38;4956172;28;113158;-84
2022/01/12 00:38:29;;;;;;;6.73;4.50;;;4.60;72.20;;;5.02;49.11;100485.44;4984837;28;125153;-83
2022/01/12 00:40:57;;;;;;;6.23;4.53;;;4.60;72.30;;;4.99;49.27;100483.16;4939967;28;123303;-84
2022/01/12 00:43:27;;;;;;;6.20;4.30;;;4.60;72.40;;;4.98;49.18;100480.66;4986107;28;114543;-84
2022/01/12 00:45:54;;;;;;;8.23;4.20;;;4.60;72.50;;;4.96;49.39;100480.06;4942276;28;112034;-84
2022/01/12 00:48:23;;;;;;;8.30;5.07;;;4.50;72.50;;;4.95;49.36;100481.13;4962985;28;123229;-83
2022/01/12 00:50:52;;;;;;;8.10;4.13;;;4.50;72.60;;;4.94;49.58;100488.50;4966283;28;123658;-85
2022/01/12 00:53:19;;;;;;;7.43;4.00;;;4.50;72.60;;;4.92;49.67;100485.19;4947913;28;114597;-84
2022/01/12 00:56:06;;;;;;;5.80;4.00;;;4.50;72.80;;;4.94;49.73;100495.88;4940638;28;112157;-86
2022/01/12 00:58:36;;;;;;;5.17;4.20;;;4.50;72.80;;;4.89;49.76;100496.59;4953932;28;124055;-86
2022/01/12 01:01:04;;;;;;;5.83;4.50;;;4.40;72.80;;;4.86;50.06;100494.31;4954771;28;123855;-87
2022/01/12 01:03:33;;;;;;;4.03;3.63;;;4.60;73.00;;;4.82;49.30;100493.13;4953990;28;114686;-87
2022/01/12 01:06:02;;;;;;;5.20;4.00;;;4.40;72.90;;;4.79;49.76;100497.16;4953723;28;115353;-86
2022/01/12 01:08:29;;;;;;;8.23;4.10;;;4.40;73.00;;;4.79;50.02;100499.91;4949759;28;123296;-86
2022/01/12 01:10:57;;;;;;;5.60;3.90;;;4.30;73.00;;;4.79;50.30;100499.91;4955933;28;122875;-85
2022/01/12 01:13:33;;;;;;;5.53;3.67;;;4.30;73.10;;;4.79;50.36;100505.38;4954848;28;113481;-86
2022/01/12 01:16:15;;;;;;;5.60;3.93;;;4.30;73.20;;;4.77;49.77;100503.94;4976891;28;113918;-86
2022/01/12 01:27:17;;;;;;;4.73;3.57;;;4.20;73.40;;;4.64;50.69;100503.03;4957074;28;114180;-86
2022/01/12 01:29:47;;;;;;;6.40;3.80;;;4.20;73.50;;;4.63;50.23;100508.75;4983735;28;124238;-86
2022/01/12 01:36:33;;;;;;;5.57;3.73;;;4.20;73.70;;;4.59;50.29;100513.00;4950345;28;114068;-86
2022/01/12 01:39:00;;;;;;;4.20;3.70;;;4.20;73.80;;;4.55;51.00;100515.38;4952292;28;113922;-86
2022/01/12 01:42:12;;;;;;;6.27;3.90;;;4.30;74.00;;;4.57;50.74;100515.16;4952807;28;123689;-87
2022/01/12 01:54:28;;;;;;;5.87;3.90;;;4.10;74.30;;;4.39;51.18;100489.47;4988403;28;124089;-81
2022/01/12 01:56:54;;;;;;;5.30;3.90;;;4.00;74.20;;;4.38;51.27;100487.81;4959544;28;123625;-82
2022/01/12 01:59:59;;;;;;;7.83;4.20;;;4.10;74.50;;;4.41;51.16;100492.00;4958965;28;114393;-82
2022/01/12 02:02:26;;;;;;;5.90;4.27;;;4.00;74.60;;;4.36;51.29;100495.41;4957497;28;114760;-84
2022/01/12 02:04:54;;;;;;;5.27;4.27;;;4.00;74.70;;;4.36;51.30;100489.13;4957172;28;123330;-86
2022/01/12 02:07:40;;;;;;;7.83;4.57;;;4.00;74.80;;;4.41;51.86;100497.47;4952242;28;122986;-84
2022/01/12 02:10:25;;;;;;;5.60;4.13;;;4.00;75.00;;;4.38;51.17;100504.25;4950980;28;114471;-86
2022/01/12 02:12:52;;;;;;;6.50;4.40;;;3.90;75.00;;;4.35;51.60;100499.22;4955592;28;112902;-86
2022/01/12 02:15:23;;;;;;;4.27;3.40;;;4.00;75.20;;;4.36;52.01;100503.63;4963442;28;124013;-87
2022/01/12 02:40:49;;;;;;;5.70;4.27;;;3.90;76.20;;;4.21;52.31;100514.94;4980707;28;123911;-86
2022/01/12 02:43:38;;;;;;;6.20;4.57;;;4.00;76.40;;;4.17;52.59;100507.44;4960240;28;113948;-86
2022/01/12 02:53:53;;;;;;;6.10;4.43;;;4.00;76.60;;;4.17;52.68;100507.44;4953478;28;116374;-85
2022/01/12 02:56:32;;;;;;;5.40;4.20;;;3.70;76.40;;;4.19;52.38;100508.03;4940998;28;114941;-87
2022/01/12 02:59:18;;;;;;;5.27;3.73;;;3.70;76.40;;;4.19;52.58;100505.28;4961860;28;124367;-86
2022/01/12 03:02:20;;;;;;;5.40;4.10;;;3.70;76.40;;;4.11;52.68;100503.72;4949311;28;123708;-85
2022/01/12 03:04:31;;;;;;;5.33;3.70;;;3.70;76.50;;;4.09;52.87;100505.00;4952390;28;114056;-85
2022/01/12 03:07:06;;;;;;;5.77;3.57;;;3.70;76.50;;;4.08;52.84;100506.06;4952385;28;114363;-85
2022/01/12 03:09:34;;;;;;;5.43;3.93;;;3.60;76.60;;;4.03;52.92;100501.28;4976990;28;123532;-86
2022/01/12 03:12:01;;;;;;;4.67;3.70;;;3.60;76.70;;;4.01;52.92;100514.34;4962598;28;123264;-84
2022/01/12 03:14:29;;;;;;;7.20;4.60;;;3.60;76.80;;;4.03;52.96;100516.84;4949989;28;114205;-85
2022/01/12 03:16:56;;;;;;;9.13;4.47;;;3.50;76.80;;;4.01;53.17;100524.47;4950949;28;113926;-86
2022/01/12 03:19:42;;;;;;;5.40;4.27;;;3.50;76.90;;;4.03;52.85;100517.69;4934366;28;123145;-87
2022/01/12 03:22:08;;;;;;;7.50;4.90;;;3.50;77.00;;;3.98;53.24;100518.38;4955205;28;124356;-84
2022/01/12 03:24:37;;;;;;;6.10;4.17;;;3.50;77.00;;;3.98;53.03;100521.09;4957905;28;114935;-86
2022/01/12 03:27:05;;;;;;;6.60;4.50;;;3.50;77.00;;;3.96;53.38;100506.81;4952094;28;113185;-86
2022/01/12 03:29:32;;;;;;;6.63;4.73;;;3.50;77.10;;;3.95;53.12;100499.69;4950963;28;123954;-86
2022/01/12 03:32:00;;;;;;;6.43;4.37;;;3.50;77.10;;;3.95;53.01;100516.09;4979019;28;122469;-86
2022/01/12 03:34:31;;;;;;;7.50;4.40;;;3.50;77.20;;;3.96;53.29;100525.13;4984121;28;113114;-83
2022/01/12 03:39:43;;;;;;;6.90;4.67;;;3.50;77.40;;;3.94;52.96;100540.91;4949330;28;124544;-85
2022/01/12 03:42:29;;;;;;;6.20;4.87;;;3.50;77.40;;;3.93;53.44;100540.09;4943403;28;123865;-84
2022/01/12 03:44:55;;;;;;;6.37;4.40;;;3.50;77.40;;;3.88;53.42;100542.66;4947705;28;115099;-86
2022/01/12 03:47:25;;;;;;;7.23;5.10;;;3.50;77.50;;;3.87;53.51;100535.53;4932632;28;112718;-85
2022/01/12 03:49:52;;;;;;;5.27;3.77;;;3.50;77.50;;;3.85;53.70;100531.34;4967642;28;123742;-87
2022/01/12 03:52:18;;;;;;;6.17;4.20;;;3.40;77.50;;;3.85;53.84;100534.09;4948979;28;123704;-88
2022/01/12 03:55:05;;;;;;;5.43;4.30;;;3.60;77.70;;;3.87;53.25;100545.59;4951732;28;113419;-86
2022/01/12 03:57:31;;;;;;;7.30;5.10;;;3.40;77.70;;;3.83;53.54;100541.66;4952500;28;112823;-86
2022/01/12 03:59:58;;;;;;;7.50;5.20;;;3.40;77.70;;;3.83;53.57;100549.88;4958751;28;124016;-87
2022/01/12 04:02:26;;;;;;;7.07;5.20;;;3.40;77.80;;;3.81;53.81;100547.34;4965232;28;123965;-86
2022/01/12 04:05:09;;;;;;;7.40;5.00;;;3.30;77.80;;;3.80;53.80;100553.88;4949891;28;114281;-87
2022/01/12 04:10:20;;;;;;;7.40;5.03;;;3.30;77.90;;;3.74;53.79;100568.47;4954203;28;125389;-87
2022/01/12 04:12:48;;;;;;;7.70;4.77;;;3.30;78.00;;;3.71;53.83;100555.25;4947472;28;122734;-87
2022/01/12 04:15:15;;;;;;;9.00;5.57;;;3.20;78.00;;;3.68;53.76;100547.47;4949709;28;111984;-87
2022/01/12 04:17:41;;;;;;;7.33;4.90;;;3.20;78.10;;;3.66;54.14;100538.69;4950774;28;114314;-87
2022/01/12 04:20:10;;;;;;;6.70;5.50;;;3.20;78.10;;;3.64;53.90;100540.78;4951440;28;124452;-87
2022/01/12 04:25:24;;;;;;;9.60;5.03;;;3.20;78.20;;;3.59;53.96;100541.47;4964969;28;114707;-85
2022/01/12 04:27:52;;;;;;;6.40;4.83;;;3.10;78.20;;;3.60;54.35;100534.09;4938553;28;114163;-86
2022/01/12 04:30:19;;;;;;;7.80;5.20;;;3.10;78.40;;;3.62;54.35;100548.38;4951581;28;124407;-87
2022/01/12 04:32:45;;;;;;;7.27;4.80;;;3.40;78.60;;;3.62;54.15;100540.19;4954757;28;124190;-85
2022/01/12 04:35:16;;;;;;;6.80;4.40;;;3.20;78.50;;;3.61;54.15;100536.59;4956197;28;114326;-84
2022/01/12 04:37:43;;;;;;;7.10;4.90;;;3.10;78.40;;;3.61;54.52;100541.25;4941090;28;115019;-86
2022/01/12 04:40:11;;;;;;;11.67;5.03;;;3.10;78.50;;;3.57;54.30;100549.03;4950026;28;123173;-85
2022/01/12 04:42:37;;;;;;;6.67;4.57;;;3.10;78.50;;;3.57;54.13;100562.69;4949355;28;123824;-84
2022/01/12 04:50:28;;;;;;;6.37;4.53;;;3.10;78.60;;;3.56;54.39;100561.03;4955404;28;124338;-86
2022/01/12 04:52:55;;;;;;;5.83;4.30;;;3.10;78.60;;;3.54;54.08;100568.63;4946377;28;123265;-87
2022/01/12 04:55:23;;;;;;;7.73;5.50;;;3.10;78.60;;;3.53;54.17;100578.72;4951048;28;114441;-84
2022/01/12 04:57:50;;;;;;;11.83;5.17;;;3.10;78.70;;;3.48;54.46;100581.28;4954304;28;113899;-86
2022/01/12 05:00:18;;;;;;;9.23;5.90;;;3.00;78.60;;;3.42;54.22;100582.16;4955338;28;123931;-86
2022/01/12 05:08:36;;;;;;;8.47;5.80;;;2.80;78.90;;;3.23;54.61;100589.44;4959047;28;114522;-87
2022/01/12 05:13:51;;;;;;;8.57;5.33;;;2.80;79.20;;;3.22;55.01;100593.22;4964377;28;124261;-87
2022/01/12 05:16:19;;;;;;;8.07;5.13;;;2.70;79.20;;;3.23;54.73;100597.63;4982193;28;114196;-86
2022/01/12 05:18:49;;;;;;;8.33;5.37;;;4.10;80.50;;;3.26;54.98;100599.09;4933561;28;111707;-87
2022/01/12 05:21:18;;;;;;;8.80;5.40;;;2.80;79.30;;;3.26;54.95;100599.09;4951418;28;124098;-85
2022/01/12 05:23:47;;;;;;;8.70;5.50;;;2.80;79.40;;;3.25;54.89;100601.00;4955954;28;124762;-85
2022/01/12 05:26:13;;;;;;;6.70;5.20;;;2.80;79.30;;;3.25;55.08;100613.78;4950217;28;114779;-84
2022/01/12 05:28:41;;;;;;;9.77;5.20;;;2.80;79.40;;;3.27;55.07;100612.50;4954697;28;114766;-87
2022/01/12 05:31:10;;;;;;;8.00;5.70;;;2.80;79.50;;;3.30;54.81;100617.56;4952800;28;124655;-86
2022/01/12 05:33:40;;;;;;;10.90;5.90;;;2.80;79.50;;;3.32;54.91;100612.69;4964454;28;123664;-86
2022/01/12 05:36:07;;;;;;;10.07;6.10;;;2.80;79.50;;;3.31;54.91;100612.94;4954943;28;113517;-86
2022/01/12 05:38:34;;;;;;;11.27;6.10;;;2.90;79.60;;;3.28;54.99;100629.78;4958021;28;113039;-87
2022/01/12 05:41:05;;;;;;;11.10;5.90;;;2.80;79.50;;;3.27;54.87;100622.59;4950357;28;123927;-84
2022/01/12 05:43:36;;;;;;;9.17;5.90;;;2.70;79.50;;;3.25;55.56;100624.72;4940060;28;123678;-85
2022/01/12 05:46:13;;;;;;;9.80;6.80;;;2.70;80.40;;;3.27;56.86;100630.81;4954966;28;114134;-87
2022/01/12 05:51:29;;;;;;;8.97;5.40;;;2.80;83.20;;;3.38;57.45;100618.34;4984574;28;124142;-87
2022/01/12 05:53:56;;;;;;;7.60;5.60;;;2.80;83.10;;;3.40;57.35;100606.13;4965189;28;123631;-86
2022/01/12 05:56:23;;;;;;;10.03;6.67;;;2.90;82.70;;;3.42;56.67;100604.03;4936772;28;113808;-86
2022/01/12 05:58:52;;;;;;;7.40;5.77;;;2.90;82.40;;;3.44;57.08;100610.13;4949098;28;113999;-86
2022/01/12 06:01:20;;;;;;;8.30;5.97;;;2.90;82.20;;;3.46;56.37;100620.81;4950222;28;124134;-86
2022/01/12 06:03:48;;;;;;;9.67;6.60;;;2.90;81.80;;;3.42;55.93;100622.31;4950675;28;123655;-80
2022/01/12 06:06:16;;;;;;;10.30;6.70;;;2.90;81.50;;;3.39;56.01;100631.78;4950173;28;114006;-87
2022/01/12 06:08:44;;;;;;;10.20;7.10;;;2.90;81.20;;;3.36;55.86;100632.25;4982853;28;114033;-86
2022/01/12 06:11:11;;;;;;;9.87;6.30;;;2.90;81.10;;;3.37;55.72;100641.25;4950528;28;123484;-84
2022/01/12 06:13:39;;;;;;;10.07;6.77;;;2.90;81.00;;;3.38;55.60;100646.50;4949867;28;123749;-84
2022/01/12 06:16:06;;;;;;;9.47;6.67;;;2.90;80.90;;;3.37;55.24;100655.75;4945739;28;115208;-87
2022/01/12 06:18:35;;;;;;;10.30;7.37;;;2.90;80.80;;;3.35;55.73;100646.09;4950532;28;116209;-81
2022/01/12 06:21:02;;;;;;;12.00;7.63;;;2.90;80.70;;;3.28;55.40;100649.72;4951221;28;123258;-83
2022/01/12 06:23:29;;;;;;;10.17;6.57;;;2.80;80.50;;;3.22;55.80;100647.00;4953369;28;123449;-86
2022/01/12 06:25:57;;;;;;;14.90;6.80;;;2.80;80.60;;;3.19;55.62;100652.91;4953179;28;112491;-85
2022/01/12 06:28:54;;;;;;;12.23;6.50;;;3.50;81.30;;;3.15;55.99;100668.06;4944443;28;114016;-85
2022/01/12 06:31:17;;;;;;;8.83;5.80;;;2.70;80.70;;;3.17;56.53;100671.41;4953579;28;124457;-85
2022/01/12 06:33:48;;;;;;;9.43;6.80;;;2.70;81.40;;;3.24;56.47;100667.59;4957285;28;123957;-85
2022/01/12 06:36:21;;;;;;;11.07;7.10;;;2.70;81.70;;;3.34;57.04;100667.13;4946957;28;114000;-87
2022/01/12 06:38:49;;;;;;;9.67;6.37;;;2.70;83.00;;;3.42;56.74;100655.94;4950502;28;113548;-85
2022/01/12 06:41:16;;;;;;;7.50;5.83;;;2.70;82.80;;;3.44;56.86;100666.63;4942508;28;124390;-87
2022/01/12 06:43:44;;;;;;;10.83;7.00;;;2.80;82.70;;;3.43;56.45;100662.25;4935371;28;121440;-84
2022/01/12 06:46:15;;;;;;;12.60;6.30;;;2.80;82.40;;;3.40;56.46;100666.25;4981994;28;114307;-86
2022/01/12 06:48:41;;;;;;;9.60;6.17;;;2.80;82.10;;;3.36;56.10;100656.81;4951495;28;114209;-85
2022/01/12 06:51:08;;;;;;;13.60;6.63;;;2.80;81.90;;;3.33;56.39;100659.97;4954888;28;124143;-85
2022/01/12 06:53:34;;;;;;;11.93;7.00;;;2.80;81.70;;;3.30;55.95;100655.81;4951477;28;124675;-85
2022/01/12 06:56:03;;;;;;;10.10;6.13;;;2.80;81.50;;;3.25;56.38;100652.03;4949178;28;114412;-86
2022/01/12 06:58:31;;;;;;;10.10;6.10;;;2.70;81.40;;;3.22;56.25;100655.22;4952846;28;114162;-86
2022/01/12 07:00:58;;;;;;;11.73;7.17;;;2.70;81.30;;;3.20;56.16;100649.16;4948470;28;123619;-85
2022/01/12 07:03:24;;;;;;;8.70;6.60;;;2.70;81.30;;;3.19;56.19;100661.94;4948835;28;124115;-87
2022/01/12 07:05:51;;;;;;;10.90;7.87;;;2.70;81.30;;;3.19;56.04;100663.84;4949237;28;114937;-86
2022/01/12 07:08:18;;;;;;;11.60;7.33;;;2.70;81.30;;;3.18;56.01;100664.91;4944801;28;114897;-85
2022/01/12 07:10:44;;;;;;;13.83;8.03;;;2.70;81.30;;;3.16;55.77;100661.53;4946266;28;123752;-86
2022/01/12 07:13:13;;;;;;;12.67;7.70;;;2.60;81.10;;;3.10;55.83;100666.81;4949028;28;123679;-85
2022/01/12 07:15:59;;;;;;;11.83;8.37;;;2.70;81.00;;;3.08;55.53;100673.56;4949576;28;114791;-86
2022/01/12 07:18:26;;;;;;;12.03;8.27;;;2.60;80.80;;;3.02;56.40;100671.69;4951410;28;113942;-86
2022/01/12 07:20:56;;;;;;;11.20;7.60;;;2.60;81.00;;;3.03;56.75;100679.66;4950349;28;122171;-87
2022/01/12 07:23:24;;;;;;;13.43;9.03;;;2.60;81.80;;;3.04;56.46;100664.97;4951097;28;123892;-86
2022/01/12 07:26:09;;;;;;;17.23;10.63;;;2.60;81.70;;;3.04;55.71;100666.88;4931247;28;112075;-87
2022/01/12 07:28:38;;;;;;;13.53;9.13;;;2.50;81.20;;;2.95;55.98;100679.06;4942986;28;114093;-84
2022/01/12 07:31:06;;;;;;;14.77;8.97;;;2.50;81.00;;;2.91;55.92;100683.31;4946936;28;123003;-87
2022/01/12 07:33:34;;;;;;;14.13;9.20;;;2.40;80.80;;;2.88;55.73;100679.09;4949739;28;123954;-85
2022/01/12 07:36:01;;;;;;;17.57;9.47;;;2.40;80.70;;;2.86;56.00;100694.84;4943756;28;113934;-85
2022/01/12 07:38:27;;;;;;;12.27;8.40;;;2.40;80.80;;;2.88;56.54;100681.84;4951461;28;113175;-85
2022/01/12 07:40:53;;;;;;;12.70;8.27;;;2.40;81.70;;;2.92;56.44;100685.78;4949206;28;123641;-85
2022/01/12 07:43:20;;;;;;;11.03;7.80;;;2.40;81.90;;;2.96;56.51;100692.53;4939417;28;123316;-87
2022/01/12 07:45:47;;;;;;;14.67;8.57;;;2.40;82.00;;;3.02;56.44;100679.88;4950348;28;112329;-87
2022/01/12 07:48:13;;;;;;;18.97;10.63;;;2.40;82.00;;;3.04;56.34;100688.72;4949892;28;113645;-85
2022/01/12 07:50:41;;;;;;;14.90;9.43;;;2.50;81.80;;;3.05;56.22;100702.13;4944896;28;123251;-86
2022/01/12 07:53:08;;;;;;;12.47;8.57;;;2.50;81.60;;;3.08;55.92;100712.63;4950714;28;123725;-83
2022/01/12 07:55:36;;;;;;;13.77;9.50;;;2.60;81.70;;;3.13;56.19;100714.72;4948778;28;114796;-84
2022/01/12 07:58:03;;;;;;;11.93;8.50;;;2.60;81.50;;;3.17;55.50;100717.84;4950887;28;114718;-82
2022/01/12 08:00:31;;;;;;;15.53;9.90;;;2.60;81.40;;;3.17;55.74;100726.88;4954141;28;124635;-86
2022/01/12 08:02:57;;;;;;;13.33;8.73;;;2.60;81.10;;;3.16;55.70;100747.03;4979994;28;123017;-86
2022/01/12 08:05:24;;;;;;;16.07;9.20;;;2.60;81.10;;;3.18;55.33;100760.50;4950556;28;113525;-85
2022/01/12 08:07:54;;;;;;;14.83;8.50;;;2.60;81.00;;;3.20;55.42;100750.19;4948793;28;113884;-87
2022/01/12 08:10:22;;;;;;;15.17;9.40;;;2.70;80.90;;;3.24;55.27;100759.63;4941790;28;123912;-86
2022/01/12 08:12:48;;;;;;;13.70;8.40;;;2.70;80.90;;;3.27;55.42;100767.38;4950318;28;124200;-86
2022/01/12 08:15:18;;;;;;;13.50;8.77;;;2.70;80.80;;;3.33;55.37;100761.06;4943908;28;114527;-88
2022/01/12 08:17:46;;;;;;;9.83;7.53;;;2.80;80.90;;;3.38;55.22;100760.41;4945384;28;112995;-84
2022/01/12 08:20:18;;;;;;;9.93;7.80;;;2.80;81.50;;;3.43;55.27;100752.41;4939934;28;123527;-87
2022/01/12 08:23:05;;;;;;;15.63;9.70;;;2.80;80.80;;;3.50;55.32;100762.25;4954425;28;124167;-88
2022/01/12 08:25:50;;;;;;;11.20;8.00;;;2.90;80.70;;;3.54;54.88;100760.75;4959388;28;113258;-88
2022/01/12 08:28:18;;;;;;;14.73;8.80;;;2.90;80.50;;;3.52;55.17;100751.13;4953973;28;113939;-88
2022/01/12 08:30:45;;;;;;;14.27;9.83;;;2.90;80.40;;;3.53;54.96;100760.97;4975479;28;125810;-87
2022/01/12 08:33:15;;;;;;;11.43;8.23;;;2.90;80.40;;;3.57;54.42;100764.09;4952899;28;124309;-88
2022/01/12 08:35:42;;;;;;;16.13;9.00;;;3.00;80.50;;;3.64;54.56;100770.38;4957888;28;114308;-86
2022/01/12 08:38:09;;;;;;;12.80;8.33;;;3.00;80.50;;;3.69;54.93;100765.94;4952906;28;113368;-86
2022/01/12 08:40:41;;;;;;;13.60;9.00;;;3.10;80.40;;;3.74;55.09;100757.09;4951967;28;124432;-82
2022/01/12 08:43:08;;;;;;;16.60;8.40;;;3.10;80.40;;;3.79;54.43;100756.41;4958480;28;123978;-87
2022/01/12 08:45:35;;;;;;;13.40;9.27;;;3.10;80.20;;;3.83;54.68;100758.50;4958539;28;115308;-78
2022/01/12 08:48:22;;;;;;;10.53;7.90;;;3.30;80.30;;;3.86;54.18;100766.25;4966941;28;114613;-78
2022/01/12 08:50:49;;;;;;;12.83;8.83;;;3.20;80.00;;;3.89;54.43;100773.19;4913637;28;123964;-84
2022/01/12 08:53:16;;;;;;;9.43;7.50;;;3.30;80.00;;;3.90;54.29;100763.94;4898886;28;122651;-84
2022/01/12 08:55:42;;;;;;;13.03;8.43;;;3.30;79.80;;;3.93;53.92;100769.78;4914034;28;113704;-81
2022/01/12 08:58:09;;;;;;;11.30;7.50;;;3.30;79.60;;;3.95;54.11;100772.31;4912183;28;113740;-80
2022/01/12 09:00:36;;;;;;;10.40;7.87;;;3.40;79.40;;;3.96;53.44;100773.97;4913724;28;123164;-82
2022/01/12 09:03:05;;;;;;;10.53;8.03;;;3.40;79.30;;;3.96;53.63;100763.03;4919615;28;124383;-83
2022/01/12 09:05:32;;;;;;;12.43;8.30;;;3.50;79.20;;;3.96;53.53;100758.41;4891066;28;114114;-83
2022/01/12 09:07:59;;;;;;;11.50;7.53;;;3.40;79.00;;;3.98;53.57;100772.69;4903997;28;113767;-84
2022/01/12 09:10:25;;;;;;;12.07;8.70;;;2.20;77.70;;;3.98;53.53;100777.34;4909200;28;123904;-84
2022/01/12 09:12:52;;;;;;;11.77;8.27;;;3.40;78.80;;;3.98;53.70;100786.38;4925197;28;123512;-86
2022/01/12 09:15:24;;;;;;;13.00;8.13;;;3.40;78.80;;;3.97;53.30;100781.13;4914881;28;114351;-86
2022/01/12 09:17:56;;;;;;;11.20;7.23;;;3.50;78.70;;;3.95;53.31;100788.72;4912422;28;113673;-84
2022/01/12 09:20:25;;;;;;;11.80;7.50;;;3.40;78.40;;;3.94;52.98;100782.38;4909327;28;124574;-85
2022/01/12 09:22:53;;;;;;;11.57;8.03;;;3.40;78.30;;;3.91;52.96;100799.25;4911402;28;122871;-85
2022/01/12 09:25:19;;;;;;;12.60;7.80;;;3.40;78.00;;;3.86;53.01;100796.31;4912807;28;114257;-87
2022/01/12 09:27:49;;;;;;;10.70;7.20;;;3.50;78.00;;;3.84;53.10;100814.88;4923352;28;113658;-87
2022/01/12 09:30:18;;;;;;;12.20;9.10;;;3.70;78.00;;;3.84;52.75;100809.41;4949596;28;123801;-87
2022/01/12 09:33:06;;;;;;;10.30;7.57;;;3.40;77.60;;;3.86;52.90;100806.44;4959266;28;124262;-88
2022/01/12 09:35:34;;;;;;;15.10;9.17;;;3.40;77.80;;;3.92;52.75;100816.47;4923452;28;115283;-86
2022/01/12 09:38:01;;;;;;;10.77;8.23;;;3.40;77.90;;;3.96;52.78;100802.16;4919108;28;114624;-86
2022/01/12 09:40:28;;;;;;;11.47;8.10;;;3.40;78.00;;;3.99;52.54;100789.94;4935162;28;123661;-86
2022/01/12 09:42:57;;;;;;;13.23;9.03;;;3.40;77.80;;;3.96;52.48;100782.19;4916527;28;123713;-84
2022/01/12 09:45:26;;;;;;;11.70;9.23;;;3.50;77.70;;;3.91;52.66;100782.84;4916010;28;113738;-84
2022/01/12 09:47:53;;;;;;;10.37;7.33;;;3.40;77.50;;;3.87;52.49;100781.63;4918821;28;114027;-85
2022/01/12 09:50:22;;;;;;;11.07;7.93;;;3.40;77.40;;;3.88;52.63;100793.38;4920476;28;123039;-88
2022/01/12 09:52:52;;;;;;;11.20;8.10;;;3.40;77.50;;;3.94;52.51;100807.00;4919199;28;122906;-86
2022/01/12 09:55:20;;;;;;;10.80;7.03;;;3.40;77.70;;;4.00;52.73;100824.44;4916656;28;114184;-88
2022/01/12 09:57:46;;;;;;;12.30;8.50;;;3.50;77.80;;;4.04;52.55;100833.06;4921800;28;113859;-85
2022/01/12 10:00:22;;;;;;;10.73;7.10;;;3.50;77.70;;;4.10;52.64;100824.78;4919222;28;123245;-88
2022/01/12 10:02:49;;;;;;;11.20;7.33;;;3.50;77.70;;;4.13;52.83;100818.88;4916324;28;124000;-87
2022/01/12 10:05:17;;;;;;;12.43;8.10;;;3.60;77.70;;;4.17;52.26;100820.13;4914025;28;114206;-88
2022/01/12 10:07:44;;;;;;;11.47;7.87;;;3.60;77.60;;;4.22;52.26;100822.22;4911451;28;113736;-81
2022/01/12 10:10:17;;;;;;;10.27;7.13;;;3.60;77.40;;;4.26;52.10;100836.28;4924979;28;122846;-84
2022/01/12 10:12:55;;;;;;;8.50;6.57;;;3.70;77.30;;;4.32;52.42;100828.00;4933624;28;124097;-88
2022/01/12 10:15:24;;;;;;;9.80;7.63;;;4.10;77.50;;;4.34;52.01;100828.63;4945647;28;113313;-81
2022/01/12 10:17:52;;;;;;;9.33;6.70;;;3.80;77.20;;;4.41;51.67;100826.69;4950833;28;113583;-87
2022/01/12 10:20:22;;;;;;;10.40;7.03;;;3.80;77.20;;;4.50;51.39;100818.22;4963809;28;123810;-87
2022/01/12 10:23:06;;;;;;;10.30;7.67;;;3.90;77.10;;;4.59;51.49;100815.00;4962839;28;123592;-87
2022/01/12 10:25:34;;;;;;;8.90;6.97;;;3.90;77.00;;;4.64;51.37;100801.44;4969502;28;115545;-87
2022/01/12 10:28:19;;;;;;;10.27;7.23;;;4.00;77.10;;;4.78;50.97;100809.53;4944855;28;113885;-86
2022/01/12 10:30:57;;;;;;;8.93;6.70;;;4.10;77.10;;;4.84;51.11;100809.50;4951289;28;124580;-87
2022/01/12 10:33:33;;;;;;;9.77;6.90;;;4.20;77.00;;;4.92;51.49;100810.28;4952049;28;123594;-87
2022/01/12 10:36:06;;;;;;;11.90;7.53;;;4.30;76.70;;;4.95;50.68;100821.59;4953884;28;114309;-86
2022/01/12 10:38:33;;;;;;;11.30;7.70;;;4.20;76.30;;;5.00;50.68;100827.25;4948965;28;114434;-85
2022/01/12 10:41:03;;;;;;;17.63;9.83;;;4.30;76.50;;;5.09;50.74;100834.09;4946649;28;125050;-87
2022/01/12 10:43:32;;;;;;;13.13;8.43;;;4.40;76.30;;;5.15;50.17;100829.63;4957855;28;123796;-84
2022/01/12 10:46:06;;;;;;;15.10;8.70;;;4.50;76.30;;;5.20;50.94;100829.78;4945040;28;114358;-86
2022/01/12 10:48:47;;;;;;;13.47;7.23;;;4.50;76.20;;;5.28;50.28;100834.97;4950485;28;114450;-87
2022/01/12 10:51:27;;;;;;;16.27;9.60;;;4.60;76.20;;;5.38;50.13;100834.44;4943606;28;123959;-86
2022/01/12 10:54:00;;;;;;;13.90;8.00;;;4.70;76.30;;;5.44;49.53;100830.78;4953013;28;124240;-84
2022/01/12 10:56:27;;;;;;;14.40;8.87;;;4.70;75.40;;;5.47;49.72;100833.06;4948478;28;114143;-86
2022/01/12 10:58:56;;;;;;;15.33;8.90;;;4.80;75.70;;;5.56;50.12;100824.53;4945572;28;114008;-86
2022/01/12 11:01:27;;;;;;;10.83;8.20;;;4.80;75.20;;;5.61;49.69;100828.25;4953672;28;121905;-87
2022/01/12 11:03:55;;;;;;;13.97;10.20;;;4.90;75.40;;;5.68;49.00;100831.75;4949163;28;123558;-86
2022/01/12 11:06:23;;;;;;;11.50;7.90;;;5.00;75.10;;;5.74;49.22;100822.59;4942492;28;114239;-86
2022/01/12 11:08:50;;;;;;;18.60;11.00;;;5.00;74.90;;;5.76;48.26;100828.69;4952642;28;113669;-87
2022/01/12 11:11:21;;;;;;;12.97;8.90;;;5.10;73.60;;;5.78;48.84;100825.75;4950053;28;124414;-87
2022/01/12 11:13:52;;;;;;;9.90;7.70;;;5.10;73.90;;;5.88;48.86;100819.69;4961253;28;123758;-86
2022/01/12 11:16:24;;;;;;;15.43;9.50;;;5.20;74.40;;;6.01;49.26;100811.31;4947277;28;115288;-87
2022/01/12 11:18:54;;;;;;;15.70;8.07;;;5.30;74.30;;;6.10;48.84;100806.31;4944631;28;115091;-88
2022/01/12 11:21:20;;;;;;;15.23;8.67;;;5.40;74.30;;;6.25;49.01;100819.63;4952557;28;124071;-88
2022/01/12 11:23:49;;;;;;;11.53;8.27;;;5.50;75.10;;;6.39;48.62;100810.97;4951995;28;123723;-85
2022/01/12 11:26:17;;;;;;;11.77;8.40;;;5.60;74.40;;;6.53;48.58;100814.34;4963759;28;114180;-85
2022/01/12 11:28:46;;;;;;;14.30;9.30;;;5.70;74.20;;;6.66;47.69;100813.25;4933647;28;113032;-86
2022/01/12 11:31:19;;;;;;;14.90;9.90;;;5.90;73.50;;;6.75;46.95;100813.75;4938687;28;124086;-85
2022/01/12 11:33:46;;;;;;;12.77;9.37;;;6.00;72.70;;;6.81;47.87;100815.53;4961005;28;124063;-86
2022/01/12 11:36:38;;;;;;;14.37;9.20;;;6.10;73.20;;;7.00;47.95;100810.78;4951672;28;114078;-87
2022/01/12 11:39:17;;;;;;;12.37;8.90;;;6.20;73.50;;;7.15;46.75;100799.31;4948316;28;113969;-86
2022/01/12 11:41:47;;;;;;;13.33;9.80;;;6.30;72.20;;;7.17;46.32;100802.63;4981371;28;123179;-87
2022/01/12 11:44:22;;;;;;;13.60;9.60;;;7.20;72.40;;;7.26;46.56;100788.28;4950918;28;123543;-86
2022/01/12 11:46:53;;;;;;;20.30;9.23;;;6.50;71.80;;;7.42;46.36;100775.69;4949504;28;113161;-87
2022/01/12 11:49:42;;;;;;;17.73;8.47;;;6.70;72.10;;;7.67;46.39;100763.53;4937694;28;113833;-86
2022/01/12 11:52:22;;;;;;;18.67;8.00;;;6.80;71.90;;;7.86;45.80;100742.16;4948402;28;124312;-87